Terminal Aerodrome Forecast
Issued by NWS

Home | Current Version | Previous Version | Text Only | Print | Product List | Glossary On
Versions: 1 2 3 4 5 6 7 8 9 10 11 12 13
000
FTUS42 TJSJ 241100 RRA
TAFJSJ
TAF
TJSJ 241144Z 2412/2512 07011KT P6SM VCSH SCT025 SCT050
     FM241600 06015G25KT P6SM VCSH SCT030 SCT050
     FM242230 09010KT P6SM -SHRA SCT020 BKN050=

USA.gov is the U.S. government's official web portal to all federal, state and local government web resources and services.